Time;durP1;ratioP1;P1;durP2;ratioP2;P2;SDS_P1;SDS_P2;PMS_P1;PMS_P2;Temp;Humidity;BMP_temperature;BMP_pressure;BME280_temperature;BME280_humidity;BME280_pressure;Samples;Min_cycle;Max_cycle;Signal;HPM_P1;HPM_P2
2023/02/20 00:02:15;;;;;;;6.87;3.60;;;8.30;99.90;;;;;;5011654;28;20174;-77
2023/02/20 00:04:41;;;;;;;5.55;4.10;;;8.30;99.90;;;;;;5015151;28;20265;-77
2023/02/20 00:07:07;;;;;;;5.30;3.90;;;8.30;99.90;;;;;;4998363;28;20205;-77
2023/02/20 00:09:32;;;;;;;5.43;4.90;;;8.20;99.90;;;;;;5017214;28;20178;-77
2023/02/20 00:11:58;;;;;;;5.10;4.47;;;8.20;99.90;;;;;;5021181;28;20221;-77
2023/02/20 00:14:24;;;;;;;9.53;5.83;;;8.20;99.90;;;;;;5035250;28;20178;-77
2023/02/20 00:16:49;;;;;;;9.50;4.87;;;8.10;99.90;;;;;;5035225;28;20181;-77
2023/02/20 00:19:15;;;;;;;8.20;4.97;;;8.10;99.90;;;;;;5009343;28;20183;-76
2023/02/20 00:21:46;;;;;;;5.95;4.50;;;8.10;99.90;;;;;;5013923;28;20185;-77
2023/02/20 00:24:12;;;;;;;7.20;4.68;;;8.10;99.90;;;;;;5034405;28;20185;-77
2023/02/20 00:26:38;;;;;;;7.80;5.13;;;8.10;99.90;;;;;;5015837;28;20184;-77
2023/02/20 00:29:04;;;;;;;5.73;4.47;;;8.10;99.90;;;;;;5016893;28;20626;-77
2023/02/20 00:31:29;;;;;;;6.13;4.33;;;8.10;99.90;;;;;;4998632;28;20685;-77
2023/02/20 00:33:55;;;;;;;7.00;5.10;;;8.00;99.90;;;;;;5000547;28;20177;-76
2023/02/20 00:36:21;;;;;;;6.60;5.20;;;8.00;99.90;;;;;;5016162;28;20177;-77
2023/02/20 00:38:47;;;;;;;8.20;5.90;;;8.00;99.90;;;;;;5034159;28;20182;-77
2023/02/20 00:41:14;;;;;;;6.03;5.13;;;8.00;99.90;;;;;;5033429;28;20610;-77
2023/02/20 00:43:41;;;;;;;6.38;5.13;;;8.00;99.90;;;;;;5014539;28;20178;-76
2023/02/20 00:46:09;;;;;;;9.27;4.63;;;8.00;99.90;;;;;;4983733;28;20167;-77
2023/02/20 00:48:35;;;;;;;6.43;4.50;;;7.90;99.90;;;;;;4997216;28;20276;-76
2023/02/20 00:51:19;;;;;;;6.55;4.85;;;7.90;99.90;;;;;;4982991;28;20214;-76
2023/02/20 00:53:45;;;;;;;6.40;4.80;;;7.90;99.90;;;;;;4992939;28;20243;-77
2023/02/20 00:56:10;;;;;;;7.67;5.30;;;7.90;99.90;;;;;;5014220;28;20228;-77
2023/02/20 00:58:36;;;;;;;9.53;5.73;;;7.90;99.90;;;;;;5014081;28;20285;-76
2023/02/20 01:01:02;;;;;;;6.70;5.03;;;7.90;99.90;;;;;;5014139;28;20694;-76
2023/02/20 01:03:28;;;;;;;8.13;5.40;;;7.90;99.90;;;;;;4996245;28;20190;-76
2023/02/20 01:05:53;;;;;;;6.90;5.27;;;7.90;99.90;;;;;;5014590;28;20573;-77
2023/02/20 01:08:19;;;;;;;10.80;6.07;;;7.90;99.90;;;;;;4996792;28;20194;-77
2023/02/20 01:10:45;;;;;;;6.67;5.47;;;8.00;99.90;;;;;;5013226;28;20214;-78
2023/02/20 01:13:10;;;;;;;6.67;5.50;;;8.00;99.90;;;;;;4996928;28;20542;-77
2023/02/20 01:15:36;;;;;;;6.97;5.20;;;8.10;99.90;;;;;;4996308;28;20174;-77
2023/02/20 01:18:04;;;;;;;7.03;5.10;;;8.10;99.90;;;;;;5014614;28;20652;-77
2023/02/20 01:20:30;;;;;;;7.45;4.80;;;8.10;99.90;;;;;;5020183;28;20177;-77
2023/02/20 01:22:56;;;;;;;8.55;6.05;;;8.20;99.90;;;;;;4996892;28;20170;-77
2023/02/20 01:25:22;;;;;;;7.37;5.23;;;8.20;99.90;;;;;;4996420;28;20237;-77
2023/02/20 01:27:48;;;;;;;8.57;6.00;;;8.30;99.90;;;;;;5014862;28;20605;-77
2023/02/20 01:30:14;;;;;;;8.93;5.97;;;8.30;99.90;;;;;;5015112;28;20194;-78
2023/02/20 01:32:41;;;;;;;9.85;5.78;;;8.40;99.90;;;;;;5013372;28;20676;-77
2023/02/20 01:35:07;;;;;;;6.20;5.17;;;8.40;99.90;;;;;;4980748;28;20216;-77
2023/02/20 01:37:34;;;;;;;9.93;6.28;;;8.40;99.90;;;;;;5014018;28;20693;-78
2023/02/20 01:39:59;;;;;;;7.50;5.43;;;8.40;99.90;;;;;;5014884;28;20170;-77
2023/02/20 01:42:30;;;;;;;7.50;5.97;;;8.50;99.90;;;;;;4984369;28;20671;-77
2023/02/20 01:45:18;;;;;;;7.25;6.30;;;8.40;99.90;;;;;;5014672;28;20221;-78
2023/02/20 01:47:44;;;;;;;6.18;5.10;;;8.50;99.90;;;;;;5014631;28;20668;-77
2023/02/20 01:50:11;;;;;;;7.85;5.82;;;8.50;99.90;;;;;;4996438;28;20225;-77
2023/02/20 01:52:38;;;;;;;8.15;6.50;;;8.50;99.90;;;;;;4996955;28;20214;-77
2023/02/20 01:55:16;;;;;;;8.70;6.75;;;8.50;99.90;;;;;;4999348;28;20170;-77
2023/02/20 01:57:50;;;;;;;8.07;5.78;;;8.50;99.90;;;;;;4996704;28;20281;-78
2023/02/20 02:00:23;;;;;;;7.85;6.35;;;8.50;99.90;;;;;;4983802;28;20225;-77
2023/02/20 02:03:01;;;;;;;7.70;6.07;;;8.50;99.90;;;;;;4994644;28;20262;-77
2023/02/20 02:05:29;;;;;;;8.40;6.40;;;8.50;99.90;;;;;;4990207;28;20538;-77
2023/02/20 02:07:57;;;;;;;8.85;6.00;;;8.50;99.90;;;;;;4994175;28;20205;-77
2023/02/20 02:10:42;;;;;;;7.82;6.25;;;8.50;99.90;;;;;;5001886;28;20183;-77
2023/02/20 02:13:08;;;;;;;7.18;5.20;;;8.60;99.90;;;;;;4997910;28;20190;-77
2023/02/20 02:15:38;;;;;;;10.63;5.85;;;8.60;99.90;;;;;;5007377;28;20232;-77
2023/02/20 02:18:33;;;;;;;9.60;5.97;;;8.60;99.90;;;;;;5015282;28;20205;-77
2023/02/20 02:21:17;;;;;;;7.47;4.90;;;8.70;99.90;;;;;;5007552;28;20593;-77
2023/02/20 02:23:58;;;;;;;7.20;5.25;;;8.60;99.90;;;;;;5015300;28;20268;-77
2023/02/20 02:26:57;;;;;;;5.32;4.25;;;8.60;99.90;;;;;;5013847;28;20177;-77
2023/02/20 02:30:00;;;;;;;7.80;4.93;;;8.60;99.90;;;;;;5008365;28;20577;-77
2023/02/20 02:32:51;;;;;;;5.82;4.53;;;8.50;99.90;;;;;;4998038;28;20201;-77
2023/02/20 02:35:29;;;;;;;7.68;6.25;;;8.50;99.90;;;;;;4998517;28;20174;-77
2023/02/20 02:38:24;;;;;;;8.07;4.80;;;8.50;99.90;;;;;;5000167;28;20205;-77
2023/02/20 02:41:06;;;;;;;5.38;4.70;;;8.40;99.90;;;;;;4989671;28;20670;-77
2023/02/20 02:43:47;;;;;;;6.32;4.53;;;8.40;99.90;;;;;;4988689;28;20264;-77
2023/02/20 02:46:22;;;;;;;7.82;3.95;;;8.30;99.90;;;;;;4983495;28;20171;-77
2023/02/20 02:49:10;;;;;;;6.30;5.70;;;8.30;99.90;;;;;;5108755;27;20726;-78
2023/02/20 02:51:39;;;;;;;6.03;4.50;;;8.20;99.90;;;;;;5106807;28;20596;-77
2023/02/20 02:54:12;;;;;;;4.90;3.72;;;8.20;99.90;;;;;;5090534;28;20619;-79
2023/02/20 02:56:41;;;;;;;4.65;4.25;;;8.10;99.90;;;;;;5107550;28;20170;-79
2023/02/20 02:59:10;;;;;;;5.10;4.05;;;8.10;99.90;;;;;;5089825;28;20634;-79
2023/02/20 03:01:45;;;;;;;4.90;4.38;;;8.00;99.90;;;;;;5107245;28;20530;-78
2023/02/20 03:04:22;;;;;;;4.13;3.72;;;8.00;99.90;;;;;;5106810;28;20179;-78
2023/02/20 03:06:51;;;;;;;4.53;4.10;;;8.00;99.90;;;;;;5107148;28;20208;-78
2023/02/20 03:09:27;;;;;;;4.05;3.17;;;8.00;99.90;;;;;;5089654;28;20171;-78
2023/02/20 03:11:55;;;;;;;5.45;3.63;;;8.00;99.90;;;;;;5089928;28;20175;-78
2023/02/20 03:18:09;;;;;;;5.03;4.00;;;7.90;99.90;;;;;;5090003;28;20244;-78
2023/02/20 03:20:54;;;;;;;4.75;4.10;;;7.90;99.90;;;;;;5094461;28;20183;-78
2023/02/20 03:23:30;;;;;;;4.50;3.70;;;7.90;99.90;;;;;;5094177;28;20186;-78
2023/02/20 03:26:16;;;;;;;4.45;3.53;;;7.90;99.90;;;;;;5110140;28;20174;-78
2023/02/20 03:28:47;;;;;;;5.20;3.40;;;7.80;99.90;;;;;;5110308;28;20227;-78
2023/02/20 03:31:47;;;;;;;5.50;3.75;;;7.80;99.90;;;;;;5109053;28;20593;-78
2023/02/20 03:45:46;;;;;;;4.80;3.67;;;7.60;99.90;;;;;;5126688;28;20995;-78
2023/02/20 03:48:42;;;;;;;5.25;4.18;;;7.60;99.90;;;;;;5110036;28;20206;-78
2023/02/20 03:51:10;;;;;;;5.63;3.92;;;7.50;99.90;;;;;;5129365;28;20178;-78
2023/02/20 03:53:46;;;;;;;7.03;4.35;;;7.50;99.90;;;;;;5109874;28;20244;-78
2023/02/20 03:56:18;;;;;;;6.13;4.15;;;7.50;99.90;;;;;;5109434;28;20163;-78
2023/02/20 03:58:50;;;;;;;5.72;4.10;;;7.50;99.90;;;;;;5121688;28;20195;-78
2023/02/20 04:01:18;;;;;;;5.88;4.57;;;7.40;99.90;;;;;;5112429;28;20411;-78
2023/02/20 04:03:46;;;;;;;6.75;4.20;;;7.40;99.90;;;;;;5114012;28;20183;-78
2023/02/20 04:06:14;;;;;;;6.05;5.05;;;7.40;99.90;;;;;;5093209;28;20643;-78
2023/02/20 04:09:22;;;;;;;7.05;5.00;;;7.40;99.90;;;;;;5096922;28;20211;-78
2023/02/20 04:11:57;;;;;;;5.10;3.90;;;7.40;99.90;;;;;;5072699;28;20224;-78
2023/02/20 04:14:24;;;;;;;5.40;3.38;;;7.40;99.90;;;;;;5095756;28;20593;-78
2023/02/20 04:16:59;;;;;;;5.57;3.72;;;7.40;99.90;;;;;;5099909;28;20187;-78
2023/02/20 04:19:25;;;;;;;5.85;4.53;;;7.40;99.90;;;;;;5078636;28;20180;-78
2023/02/20 04:21:58;;;;;;;7.77;4.90;;;7.40;99.90;;;;;;5098820;28;20171;-79
2023/02/20 04:24:38;;;;;;;7.05;4.35;;;7.40;99.90;;;;;;5072124;28;20578;-78
2023/02/20 04:27:04;;;;;;;6.97;4.43;;;7.30;99.90;;;;;;5075446;28;20302;-78
2023/02/20 04:29:32;;;;;;;6.45;3.83;;;7.40;99.90;;;;;;5054914;28;20176;-78
2023/02/20 04:31:58;;;;;;;9.87;4.50;;;7.40;99.90;;;;;;5072677;28;20525;-78
2023/02/20 04:34:29;;;;;;;5.00;4.30;;;7.40;99.90;;;;;;5071559;28;20575;-77
2023/02/20 04:37:13;;;;;;;5.10;3.90;;;7.40;99.90;;;;;;5071596;28;20182;-77
2023/02/20 04:39:39;;;;;;;7.75;4.15;;;7.40;99.90;;;;;;5054406;28;20247;-78
2023/02/20 04:42:06;;;;;;;5.65;3.67;;;7.40;99.90;;;;;;5054696;28;20180;-78
2023/02/20 04:44:33;;;;;;;5.65;3.35;;;7.40;99.90;;;;;;5071872;28;20541;-78
2023/02/20 04:47:05;;;;;;;5.07;4.20;;;7.40;99.90;;;;;;5070773;28;20596;-78
2023/02/20 04:49:32;;;;;;;7.68;5.53;;;7.40;99.90;;;;;;5071166;28;20639;-78
2023/02/20 04:52:01;;;;;;;5.75;3.53;;;7.40;99.90;;;;;;5054113;28;20221;-78
2023/02/20 04:54:27;;;;;;;6.60;3.95;;;7.40;99.90;;;;;;5071443;28;20194;-78
2023/02/20 04:56:53;;;;;;;6.07;4.57;;;7.40;99.90;;;;;;5072261;28;20168;-78
2023/02/20 04:59:19;;;;;;;4.97;4.20;;;7.40;99.90;;;;;;5054150;28;20168;-78
2023/02/20 05:01:48;;;;;;;5.10;3.43;;;7.40;99.90;;;;;;5054311;28;20692;-78
2023/02/20 05:04:15;;;;;;;4.43;3.45;;;7.40;99.90;;;;;;5091352;28;20248;-78
2023/02/20 05:07:01;;;;;;;4.97;3.85;;;7.40;99.90;;;;;;5073294;28;20251;-78
2023/02/20 05:09:27;;;;;;;12.68;4.18;;;7.40;99.90;;;;;;5087502;28;20286;-78
2023/02/20 05:11:53;;;;;;;4.65;3.60;;;7.40;99.90;;;;;;5073298;28;20175;-78
2023/02/20 05:14:19;;;;;;;5.80;3.97;;;7.40;99.90;;;;;;5103069;28;20196;-77
2023/02/20 05:16:45;;;;;;;5.72;4.05;;;7.50;99.90;;;;;;5111965;28;20611;-78
2023/02/20 05:19:12;;;;;;;9.55;5.15;;;7.50;99.90;;;;;;5091774;28;20332;-78
2023/02/20 05:24:27;;;;;;;6.30;4.55;;;7.50;99.90;;;;;;5092075;28;20511;-79
2023/02/20 05:26:53;;;;;;;7.15;4.63;;;7.50;99.90;;;;;;5091472;28;20579;-78
2023/02/20 05:29:20;;;;;;;6.32;5.25;;;7.40;99.90;;;;;;5091188;28;20183;-78
2023/02/20 05:31:45;;;;;;;6.07;4.43;;;7.40;99.90;;;;;;5091046;28;20741;-78
2023/02/20 05:34:11;;;;;;;4.80;4.13;;;7.40;99.90;;;;;;5090523;28;20274;-78
2023/02/20 05:36:36;;;;;;;7.97;4.30;;;7.40;99.90;;;;;;5093665;28;20255;-78
2023/02/20 05:39:03;;;;;;;6.57;4.43;;;7.40;99.90;;;;;;5091832;28;20171;-79
2023/02/20 05:41:29;;;;;;;6.53;3.40;;;7.40;99.90;;;;;;5094431;28;20174;-79
2023/02/20 05:43:56;;;;;;;5.17;3.67;;;7.40;99.90;;;;;;5091288;28;20172;-79
2023/02/20 05:46:26;;;;;;;6.55;3.78;;;7.40;99.90;;;;;;5090220;28;20574;-78
2023/02/20 05:48:53;;;;;;;5.80;4.40;;;7.40;99.90;;;;;;5092145;28;20245;-78
2023/02/20 05:51:21;;;;;;;6.13;3.70;;;7.40;99.90;;;;;;5089405;28;20172;-78
2023/02/20 05:53:46;;;;;;;4.70;3.75;;;7.40;99.90;;;;;;5091735;28;20171;-79
2023/02/20 05:56:12;;;;;;;5.73;3.90;;;7.40;99.90;;;;;;5091801;28;20198;-78
2023/02/20 05:58:38;;;;;;;5.30;4.10;;;7.30;99.90;;;;;;5091776;28;20196;-78
2023/02/20 06:01:03;;;;;;;5.23;3.67;;;7.30;99.90;;;;;;5089662;28;20174;-79
2023/02/20 06:03:29;;;;;;;7.80;3.93;;;7.30;99.90;;;;;;5091861;28;20602;-78
2023/02/20 06:05:55;;;;;;;5.10;4.13;;;7.30;99.90;;;;;;5090347;28;20550;-78
2023/02/20 06:08:21;;;;;;;4.97;3.90;;;7.30;99.90;;;;;;5095591;28;20207;-78
2023/02/20 06:10:46;;;;;;;5.53;3.70;;;7.30;99.90;;;;;;5103166;28;20738;-78
2023/02/20 06:13:12;;;;;;;6.43;4.80;;;7.30;99.90;;;;;;5110770;28;20167;-78
2023/02/20 06:15:38;;;;;;;4.73;3.97;;;7.30;99.90;;;;;;5112042;28;20585;-78
2023/02/20 06:18:03;;;;;;;5.07;3.87;;;7.40;99.90;;;;;;5112274;28;20570;-78
2023/02/20 06:20:29;;;;;;;4.57;3.50;;;7.40;99.90;;;;;;5100122;28;20176;-78
2023/02/20 06:22:56;;;;;;;7.90;4.00;;;7.40;99.90;;;;;;5089298;28;20580;-78
2023/02/20 06:25:22;;;;;;;6.10;4.00;;;7.40;99.90;;;;;;5090085;28;20179;-78
2023/02/20 06:27:47;;;;;;;5.00;3.87;;;7.40;99.90;;;;;;5090909;28;20286;-78
2023/02/20 06:30:13;;;;;;;5.67;4.07;;;7.40;99.90;;;;;;5091072;28;20529;-78
2023/02/20 06:32:39;;;;;;;5.27;3.93;;;7.30;99.90;;;;;;5089755;28;20179;-78
2023/02/20 06:35:05;;;;;;;5.33;3.80;;;7.30;99.90;;;;;;5090964;28;20221;-78
2023/02/20 06:37:31;;;;;;;6.03;4.25;;;7.30;99.90;;;;;;5089808;28;20195;-78
2023/02/20 06:39:56;;;;;;;6.43;3.97;;;7.30;99.90;;;;;;5088850;28;20175;-78
2023/02/20 06:42:22;;;;;;;9.30;4.87;;;7.30;99.90;;;;;;5089468;28;20182;-77
2023/02/20 06:44:48;;;;;;;7.90;5.40;;;7.30;99.90;;;;;;5089417;28;20176;-78
2023/02/20 06:47:14;;;;;;;7.20;5.10;;;7.30;99.90;;;;;;5056321;28;20238;-78
2023/02/20 06:49:40;;;;;;;5.10;4.10;;;7.30;99.90;;;;;;5072412;28;20198;-77
2023/02/20 06:52:07;;;;;;;5.30;4.50;;;7.40;99.90;;;;;;5089531;28;20183;-78
2023/02/20 06:54:33;;;;;;;6.07;4.85;;;7.40;99.90;;;;;;5089728;28;20195;-78
2023/02/20 06:57:00;;;;;;;5.30;4.80;;;7.40;99.90;;;;;;5094037;28;20559;-78
2023/02/20 06:59:26;;;;;;;7.72;4.55;;;7.50;99.90;;;;;;5089555;28;20191;-77
2023/02/20 07:01:52;;;;;;;4.37;3.73;;;7.50;99.90;;;;;;5085782;28;20179;-78
2023/02/20 07:04:21;;;;;;;6.00;4.90;;;7.60;99.90;;;;;;5090841;28;21097;-78
2023/02/20 07:06:47;;;;;;;6.25;4.22;;;7.60;99.90;;;;;;5099017;28;20179;-77
2023/02/20 07:09:13;;;;;;;6.00;4.23;;;7.70;99.90;;;;;;5092301;28;20178;-78
2023/02/20 07:11:40;;;;;;;6.15;4.05;;;7.70;99.90;;;;;;5109611;28;20584;-78
2023/02/20 07:14:06;;;;;;;8.50;5.18;;;7.80;99.90;;;;;;5110285;28;20175;-78
2023/02/20 07:16:32;;;;;;;11.98;6.25;;;7.90;99.90;;;;;;5103028;28;20178;-78
2023/02/20 07:18:58;;;;;;;7.10;4.90;;;7.90;99.90;;;;;;5103129;28;20289;-79
2023/02/20 07:21:23;;;;;;;5.77;4.43;;;8.00;99.90;;;;;;5090369;28;20668;-78
2023/02/20 07:23:49;;;;;;;6.07;4.17;;;8.00;99.90;;;;;;5092119;28;20566;-77
2023/02/20 07:26:26;;;;;;;7.23;4.67;;;8.10;99.90;;;;;;5093077;28;20241;-78
2023/02/20 07:28:53;;;;;;;4.95;4.07;;;8.20;99.90;;;;;;5092960;28;20210;-77
2023/02/20 07:31:19;;;;;;;7.28;4.43;;;8.30;99.90;;;;;;5092350;28;20180;-76
2023/02/20 07:33:45;;;;;;;6.13;4.17;;;8.30;99.90;;;;;;5100291;28;20168;-77
2023/02/20 07:36:13;;;;;;;6.30;4.70;;;8.40;99.90;;;;;;5095519;28;20514;-77
2023/02/20 07:38:39;;;;;;;6.57;4.65;;;8.40;99.90;;;;;;5093596;28;20664;-77
2023/02/20 07:41:05;;;;;;;8.17;4.93;;;8.50;99.90;;;;;;5093645;28;20203;-77
2023/02/20 07:43:31;;;;;;;5.88;5.22;;;8.50;99.90;;;;;;5077312;28;20646;-77
2023/02/20 07:46:00;;;;;;;6.47;4.88;;;8.60;99.90;;;;;;5060098;28;20175;-77
2023/02/20 07:48:27;;;;;;;5.72;3.88;;;8.60;99.90;;;;;;5094783;28;20289;-76
2023/02/20 07:50:53;;;;;;;8.70;4.33;;;8.60;99.90;;;;;;5093103;28;20663;-76
2023/02/20 07:53:20;;;;;;;5.90;4.70;;;8.70;99.90;;;;;;5076365;28;20589;-76
2023/02/20 07:55:46;;;;;;;5.75;4.50;;;8.80;99.90;;;;;;5092986;28;20589;-76
2023/02/20 07:58:11;;;;;;;5.63;4.37;;;8.80;99.90;;;;;;5085180;28;20204;-75
2023/02/20 08:00:37;;;;;;;5.60;3.70;;;8.90;99.90;;;;;;5091529;28;20609;-76
2023/02/20 08:03:03;;;;;;;6.60;4.43;;;9.00;99.90;;;;;;5109321;28;20175;-75
2023/02/20 08:05:29;;;;;;;5.50;3.40;;;9.10;99.90;;;;;;5092666;28;20654;-76
2023/02/20 08:07:55;;;;;;;5.60;3.60;;;9.20;99.90;;;;;;5093973;28;20635;-75
2023/02/20 08:10:24;;;;;;;4.60;3.75;;;9.30;99.90;;;;;;5085921;28;20607;-75
2023/02/20 08:12:51;;;;;;;5.05;3.10;;;9.40;99.90;;;;;;5059988;28;20189;-76
2023/02/20 08:15:18;;;;;;;8.25;3.35;;;9.50;99.90;;;;;;5075795;28;20174;-76
2023/02/20 08:17:44;;;;;;;5.38;3.70;;;9.60;99.90;;;;;;5092606;28;20200;-77
2023/02/20 08:20:11;;;;;;;5.50;3.43;;;9.70;99.90;;;;;;5093769;28;20183;-77
2023/02/20 08:22:37;;;;;;;8.70;3.88;;;9.80;99.90;;;;;;5112763;22;20171;-76
2023/02/20 08:25:03;;;;;;;4.63;2.80;;;10.00;99.90;;;;;;5051264;28;20177;-78
2023/02/20 08:27:30;;;;;;;4.93;3.33;;;10.10;99.90;;;;;;5042727;28;20635;-77
2023/02/20 08:29:56;;;;;;;5.25;3.15;;;10.20;99.90;;;;;;5043216;28;20671;-77
2023/02/20 08:32:22;;;;;;;8.93;3.75;;;10.30;99.90;;;;;;5033148;28;20629;-77
2023/02/20 08:34:50;;;;;;;4.72;2.83;;;10.40;99.90;;;;;;5031239;28;20173;-77
2023/02/20 08:37:16;;;;;;;6.77;3.57;;;10.40;99.90;;;;;;4998299;28;20601;-78
2023/02/20 08:39:41;;;;;;;5.90;4.13;;;10.50;99.90;;;;;;5031138;28;20182;-78
2023/02/20 08:42:07;;;;;;;4.33;2.87;;;10.60;99.90;;;;;;5015829;28;20628;-78
2023/02/20 08:44:33;;;;;;;7.00;3.10;;;10.60;99.90;;;;;;5037770;28;20197;-78
2023/02/20 08:46:59;;;;;;;8.13;3.07;;;10.70;99.90;;;;;;5031547;28;20189;-77
2023/02/20 08:49:24;;;;;;;5.17;3.47;;;10.80;99.90;;;;;;5030820;28;20196;-77
2023/02/20 08:51:54;;;;;;;9.73;3.63;;;10.90;99.90;;;;;;5014596;28;20536;-77
2023/02/20 08:54:20;;;;;;;7.80;3.65;;;11.10;99.90;;;;;;5031982;28;20212;-77
2023/02/20 08:56:46;;;;;;;8.73;4.63;;;11.40;99.90;;;;;;5036857;28;20642;-78
2023/02/20 08:59:12;;;;;;;6.47;3.87;;;11.60;99.90;;;;;;5035455;28;20259;-77
2023/02/20 09:01:41;;;;;;;4.90;3.33;;;11.60;99.90;;;;;;5014869;28;20946;-78
2023/02/20 09:04:09;;;;;;;7.30;3.40;;;11.60;99.90;;;;;;5031048;28;20194;-77
2023/02/20 09:06:35;;;;;;;5.90;3.25;;;11.50;99.90;;;;;;5014864;28;20170;-78
2023/02/20 09:09:02;;;;;;;6.07;3.67;;;11.50;99.90;;;;;;5031721;28;20251;-77
2023/02/20 09:11:28;;;;;;;5.15;4.43;;;11.40;99.90;;;;;;5031980;28;20666;-77
2023/02/20 09:13:54;;;;;;;6.68;3.92;;;11.20;99.90;;;;;;5016758;28;20202;-77
2023/02/20 09:16:22;;;;;;;5.23;3.70;;;11.20;99.90;;;;;;5033183;28;20211;-78
2023/02/20 09:18:48;;;;;;;5.50;4.20;;;11.20;99.90;;;;;;5033449;28;20216;-77
2023/02/20 09:21:17;;;;;;;6.93;4.57;;;11.20;99.90;;;;;;5029480;28;20201;-77
2023/02/20 09:23:44;;;;;;;6.45;4.53;;;11.10;99.90;;;;;;5030565;28;20632;-76
2023/02/20 09:26:09;;;;;;;7.93;4.80;;;11.10;99.90;;;;;;5030524;28;20182;-78
2023/02/20 09:28:35;;;;;;;6.60;4.47;;;11.10;99.90;;;;;;5014379;28;20262;-76
2023/02/20 09:31:01;;;;;;;7.80;4.77;;;11.10;99.90;;;;;;5031170;28;20564;-76
2023/02/20 09:33:27;;;;;;;4.60;3.80;;;11.10;99.90;;;;;;5030389;28;20190;-76
2023/02/20 09:35:54;;;;;;;8.93;4.90;;;11.10;99.90;;;;;;5030266;28;20560;-76
2023/02/20 09:38:21;;;;;;;7.45;4.43;;;11.10;99.90;;;;;;5032131;28;20240;-77
2023/02/20 09:40:51;;;;;;;5.68;4.53;;;11.10;99.90;;;;;;5028016;28;20529;-78
2023/02/20 09:43:54;;;;;;;7.80;5.00;;;11.20;99.90;;;;;;5007523;28;20213;-78
2023/02/20 09:46:22;;;;;;;6.85;5.22;;;11.20;99.90;;;;;;5029408;28;20189;-78
2023/02/20 09:48:47;;;;;;;6.35;4.55;;;11.40;99.90;;;;;;5030321;28;20710;-78
2023/02/20 09:51:16;;;;;;;9.27;4.80;;;11.60;99.90;;;;;;5029570;28;20252;-78
2023/02/20 09:54:15;;;;;;;6.95;4.50;;;11.90;99.90;;;;;;5013281;28;20216;-78
2023/02/20 09:56:48;;;;;;;6.30;5.03;;;12.20;99.90;;;;;;5024973;28;20184;-77
2023/02/20 09:59:28;;;;;;;7.70;5.90;;;12.60;99.90;;;;;;5029581;28;20591;-77
2023/02/20 10:02:00;;;;;;;6.47;4.72;;;12.80;99.90;;;;;;5030258;28;21067;-78
2023/02/20 10:04:38;;;;;;;12.70;5.70;;;13.10;99.90;;;;;;5031000;28;20197;-77
2023/02/20 10:07:17;;;;;;;7.07;5.30;;;13.60;99.90;;;;;;5030245;28;20726;-78
2023/02/20 10:09:43;;;;;;;5.80;5.17;;;13.90;99.90;;;;;;5029407;28;20616;-78
2023/02/20 10:12:18;;;;;;;10.10;5.50;;;14.40;99.90;;;;;;5029587;28;20619;-78
2023/02/20 10:15:22;;;;;;;7.80;5.67;;;14.90;99.90;;;;;;5013245;28;20714;-77
2023/02/20 10:18:03;;;;;;;6.40;4.83;;;15.50;99.90;;;;;;5009565;28;20592;-77
2023/02/20 10:20:51;;;;;;;8.73;4.80;;;15.90;99.90;;;;;;5028711;28;20604;-77
2023/02/20 10:23:37;;;;;;;6.23;4.70;;;16.00;99.90;;;;;;5009943;28;20670;-78
2023/02/20 10:26:09;;;;;;;7.70;4.93;;;16.10;99.90;;;;;;5029809;28;20580;-77
2023/02/20 10:28:35;;;;;;;6.00;4.90;;;16.10;99.90;;;;;;5030064;28;20644;-83
2023/02/20 10:31:12;;;;;;;8.97;6.07;;;15.90;99.90;;;;;;5029110;28;21148;-83
2023/02/20 10:33:44;;;;;;;6.53;5.07;;;15.70;99.90;;;;;;5027752;28;20627;-83
2023/02/20 10:36:16;;;;;;;8.33;4.80;;;15.60;99.90;;;;;;5026070;28;20596;-83
2023/02/20 10:39:10;;;;;;;7.47;5.90;;;15.40;99.90;;;;;;5030439;28;20596;-83
2023/02/20 10:41:53;;;;;;;7.90;5.80;;;15.20;99.90;;;;;;5013024;28;20591;-84
2023/02/20 10:44:37;;;;;;;7.50;5.70;;;15.00;99.90;;;;;;5030561;28;20623;-84
2023/02/20 10:47:18;;;;;;;7.90;5.30;;;14.80;99.90;;;;;;5030971;28;20647;-83
2023/02/20 10:49:59;;;;;;;6.80;5.57;;;14.70;99.90;;;;;;5030955;28;20584;-82
2023/02/20 10:52:51;;;;;;;7.50;6.17;;;14.50;99.90;;;;;;5016893;28;20599;-82
2023/02/20 10:55:23;;;;;;;12.33;6.10;;;14.40;99.90;;;;;;5030823;28;20943;-82
2023/02/20 10:58:11;;;;;;;8.60;6.03;;;14.30;99.90;;;;;;5014111;28;20582;-82
2023/02/20 11:01:00;;;;;;;8.67;6.90;;;14.10;99.90;;;;;;5030465;28;20593;-81
2023/02/20 11:03:38;;;;;;;10.27;6.80;;;14.00;99.90;;;;;;5014936;28;20628;-81
2023/02/20 11:06:08;;;;;;;8.73;6.83;;;13.90;99.90;;;;;;4998186;28;20643;-81
2023/02/20 11:08:35;;;;;;;6.60;6.00;;;13.80;99.90;;;;;;5011681;28;21055;-82
2023/02/20 11:11:35;;;;;;;12.30;6.60;;;13.70;99.90;;;;;;5007557;28;20614;-81
2023/02/20 11:14:10;;;;;;;7.55;6.85;;;13.60;99.90;;;;;;5034737;28;20615;-81
2023/02/20 11:16:41;;;;;;;6.43;5.83;;;13.60;99.90;;;;;;5000312;28;20181;-81
2023/02/20 11:19:17;;;;;;;8.37;7.07;;;13.60;99.90;;;;;;5032290;28;20607;-80
2023/02/20 11:21:47;;;;;;;9.47;6.20;;;13.60;99.90;;;;;;5034388;28;20959;-81
2023/02/20 11:24:32;;;;;;;8.87;7.30;;;13.70;99.90;;;;;;5037296;28;20632;-83
2023/02/20 11:27:06;;;;;;;10.90;6.70;;;13.80;99.90;;;;;;5034164;28;20619;-82
2023/02/20 11:29:41;;;;;;;9.97;6.60;;;13.90;99.90;;;;;;5033828;28;20580;-82
2023/02/20 11:32:28;;;;;;;9.63;6.37;;;13.90;99.90;;;;;;5017505;28;20591;-82
2023/02/20 11:35:18;;;;;;;7.80;6.43;;;13.90;99.90;;;;;;5034311;28;20565;-82
2023/02/20 11:37:51;;;;;;;12.77;7.00;;;14.00;99.90;;;;;;5016485;28;21218;-82
2023/02/20 11:40:29;;;;;;;7.70;6.70;;;14.10;99.90;;;;;;5030585;28;20595;-83
2023/02/20 11:42:55;;;;;;;8.37;6.47;;;14.00;99.90;;;;;;5031581;28;20616;-83
2023/02/20 11:45:26;;;;;;;10.17;6.60;;;14.10;99.90;;;;;;5031132;28;20584;-83
2023/02/20 11:48:10;;;;;;;12.00;7.70;;;14.10;99.90;;;;;;5033163;28;20682;-83
2023/02/20 11:50:48;;;;;;;10.10;8.00;;;14.20;99.90;;;;;;5030873;28;20593;-83
2023/02/20 11:53:24;;;;;;;14.00;8.90;;;14.30;99.90;;;;;;5033990;28;20607;-83
2023/02/20 11:56:05;;;;;;;10.00;7.27;;;14.40;99.90;;;;;;5032445;28;20678;-84
2023/02/20 11:58:31;;;;;;;8.97;7.03;;;14.60;99.90;;;;;;5032886;28;20580;-84
2023/02/20 12:00:57;;;;;;;14.40;8.37;;;14.90;99.90;;;;;;5034010;28;20580;-82
2023/02/20 12:03:27;;;;;;;9.03;7.10;;;15.20;99.90;;;;;;5034289;28;20612;-83
2023/02/20 12:05:54;;;;;;;8.53;7.00;;;15.60;99.90;;;;;;5015633;28;20207;-83
2023/02/20 12:08:41;;;;;;;10.87;8.20;;;15.90;99.90;;;;;;5032623;28;20623;-82
2023/02/20 12:11:28;;;;;;;7.33;6.30;;;16.20;99.90;;;;;;5014888;28;20596;-82
2023/02/20 12:13:58;;;;;;;8.90;8.00;;;16.30;99.90;;;;;;5033349;28;20631;-84
2023/02/20 12:16:43;;;;;;;10.67;8.53;;;16.40;99.90;;;;;;5031478;28;20987;-83
2023/02/20 12:19:31;;;;;;;9.67;7.77;;;16.30;99.90;;;;;;5015246;28;20920;-82
2023/02/20 12:22:27;;;;;;;9.90;8.40;;;16.20;99.90;;;;;;5032966;28;20583;-82
2023/02/20 12:25:20;;;;;;;10.47;9.37;;;16.00;99.90;;;;;;5032364;28;20643;-83
2023/02/20 12:28:14;;;;;;;12.07;8.70;;;15.70;99.90;;;;;;5038096;28;20647;-82
2023/02/20 12:31:04;;;;;;;12.67;9.33;;;15.40;99.90;;;;;;5032679;28;20563;-82
2023/02/20 12:34:03;;;;;;;12.30;9.80;;;15.30;99.90;;;;;;5033075;28;20604;-83
2023/02/20 12:36:31;;;;;;;9.90;8.70;;;15.00;99.90;;;;;;5033654;28;20588;-83
2023/02/20 12:39:16;;;;;;;9.20;8.20;;;14.90;99.90;;;;;;5034954;28;20568;-83
2023/02/20 12:42:18;;;;;;;10.00;8.00;;;14.80;99.90;;;;;;5031609;28;20585;-83
2023/02/20 12:45:27;;;;;;;11.82;9.13;;;14.60;99.90;;;;;;5031156;28;20622;-83
2023/02/20 12:48:30;;;;;;;11.00;7.83;;;14.50;99.90;;;;;;5032009;28;20202;-83
2023/02/20 12:51:05;;;;;;;10.27;7.20;;;14.50;99.90;;;;;;5031230;28;20588;-83
2023/02/20 12:53:58;;;;;;;10.80;8.57;;;14.50;99.90;;;;;;5031830;28;20678;-83
2023/02/20 12:56:48;;;;;;;12.63;7.73;;;14.40;99.90;;;;;;5031707;28;20573;-83
2023/02/20 12:59:52;;;;;;;9.30;7.90;;;14.40;99.90;;;;;;5031847;28;20573;-83
2023/02/20 13:02:35;;;;;;;13.10;10.53;;;14.40;99.90;;;;;;5021154;28;20584;-83
2023/02/20 13:05:04;;;;;;;13.17;8.70;;;14.30;99.90;;;;;;5032532;28;20587;-83
2023/02/20 13:07:37;;;;;;;15.27;8.93;;;14.30;99.90;;;;;;5031438;28;20957;-83
2023/02/20 13:10:13;;;;;;;11.53;8.43;;;14.30;99.90;;;;;;5030812;28;20668;-83
2023/02/20 13:12:38;;;;;;;11.07;8.50;;;14.20;99.90;;;;;;5031209;28;20608;-83
2023/02/20 13:15:37;;;;;;;14.33;9.07;;;14.20;99.90;;;;;;5031120;28;20588;-83
2023/02/20 13:18:27;;;;;;;12.97;9.33;;;14.20;99.90;;;;;;5032629;28;20174;-83
2023/02/20 13:21:02;;;;;;;13.60;8.20;;;14.30;99.90;;;;;;5031034;28;20681;-83
2023/02/20 13:23:31;;;;;;;13.07;8.47;;;14.40;99.90;;;;;;5032065;28;20627;-83
2023/02/20 13:25:57;;;;;;;11.03;8.30;;;14.50;99.90;;;;;;5032297;28;20618;-83
2023/02/20 13:28:43;;;;;;;12.17;7.97;;;14.60;99.90;;;;;;5030910;28;20731;-83
2023/02/20 13:31:13;;;;;;;13.20;9.13;;;14.70;99.90;;;;;;5030678;28;20565;-83
2023/02/20 13:33:51;;;;;;;11.40;9.40;;;14.80;99.90;;;;;;5030996;28;20601;-83
2023/02/20 13:36:25;;;;;;;10.90;8.13;;;14.80;99.90;;;;;;5032302;28;21138;-83